createdAt,value
2023-03-11T00:01:30.174Z,15.83
2023-03-11T00:04:03.061Z,16.10
2023-03-11T00:06:34.290Z,16.63
2023-03-11T00:09:09.534Z,17.13
2023-03-11T00:11:40.454Z,16.60
2023-03-11T00:14:20.968Z,16.90
2023-03-11T00:16:49.293Z,18.00
2023-03-11T00:19:22.936Z,19.13
2023-03-11T00:21:51.172Z,18.70
2023-03-11T00:24:21.108Z,17.67
2023-03-11T00:26:51.800Z,18.53
2023-03-11T00:29:25.549Z,17.60
2023-03-11T00:32:06.635Z,18.43
2023-03-11T00:34:45.125Z,19.33
2023-03-11T00:37:21.229Z,19.50
2023-03-11T00:39:58.372Z,22.67
2023-03-11T00:42:40.086Z,22.80
2023-03-11T00:45:22.905Z,23.07
2023-03-11T00:48:04.888Z,22.93
2023-03-11T00:50:42.265Z,23.30
2023-03-11T00:53:20.294Z,25.23
2023-03-11T00:56:13.517Z,25.20
2023-03-11T00:58:59.474Z,24.63
2023-03-11T01:01:41.408Z,25.60
2023-03-11T01:04:15.389Z,23.73
2023-03-11T01:06:48.214Z,21.93
2023-03-11T01:09:16.532Z,23.33
2023-03-11T01:12:09.101Z,21.73
2023-03-11T01:14:52.694Z,21.10
2023-03-11T01:17:25.160Z,19.53
2023-03-11T01:20:10.941Z,18.50
2023-03-11T01:22:55.421Z,18.30
2023-03-11T01:25:31.147Z,18.20
2023-03-11T01:28:24.736Z,17.80
2023-03-11T01:31:00.937Z,18.10
2023-03-11T01:33:35.913Z,18.20
2023-03-11T01:36:08.050Z,17.73
2023-03-11T01:38:42.893Z,18.07
2023-03-11T01:41:24.370Z,18.07
2023-03-11T01:44:00.863Z,18.60
2023-03-11T01:47:16.366Z,18.17
2023-03-11T01:49:46.826Z,17.00
2023-03-11T01:52:15.320Z,16.73
2023-03-11T01:54:52.248Z,16.80
2023-03-11T01:57:22.980Z,16.93
2023-03-11T02:00:09.304Z,16.80
2023-03-11T02:02:45.020Z,17.70
2023-03-11T02:05:18.584Z,18.10
2023-03-11T02:07:47.704Z,17.40
2023-03-11T02:10:23.731Z,17.67
2023-03-11T02:13:00.680Z,17.73
2023-03-11T02:15:37.358Z,17.33
2023-03-11T02:18:09.243Z,17.70
2023-03-11T02:20:49.522Z,17.50
2023-03-11T02:23:19.582Z,17.43
2023-03-11T02:25:57.229Z,17.30
2023-03-11T02:28:32.364Z,17.60
2023-03-11T02:31:01.532Z,17.30
2023-03-11T02:33:42.930Z,17.60
2023-03-11T02:36:42.494Z,17.90
2023-03-11T02:39:14.356Z,18.20
2023-03-11T02:41:53.626Z,17.70
2023-03-11T02:44:28.753Z,17.70
2023-03-11T02:47:18.132Z,17.37
2023-03-11T02:49:56.776Z,16.50
2023-03-11T02:52:42.071Z,16.83
2023-03-11T02:55:18.440Z,16.80
2023-03-11T02:57:52.523Z,17.10
2023-03-11T03:00:27.568Z,16.10
2023-03-11T03:03:08.434Z,16.90
2023-03-11T03:26:12.069Z,17.60
2023-03-11T03:28:44.736Z,18.30
2023-03-11T03:31:15.961Z,18.97
2023-03-11T03:33:47.441Z,18.00
2023-03-11T03:36:19.620Z,19.93
2023-03-11T03:39:33.512Z,19.37
2023-03-11T03:42:20.272Z,22.30
2023-03-11T03:44:49.191Z,20.83
2023-03-11T03:47:20.521Z,20.00
2023-03-11T03:50:00.613Z,19.37
2023-03-11T03:52:33.777Z,18.83
2023-03-11T03:55:09.093Z,19.40
2023-03-11T03:57:47.687Z,20.03
2023-03-11T04:00:25.692Z,20.53
2023-03-11T04:03:00.012Z,20.40
2023-03-11T04:05:56.752Z,20.00
2023-03-11T04:08:25.312Z,19.60
2023-03-11T04:10:58.620Z,18.90
2023-03-11T04:13:28.707Z,20.70
2023-03-11T04:15:57.582Z,21.20
2023-03-11T04:18:26.289Z,25.70
2023-03-11T04:20:57.007Z,21.93
2023-03-11T04:23:25.587Z,22.73
2023-03-11T04:25:54.082Z,22.73
2023-03-11T04:28:22.855Z,21.33
2023-03-11T04:30:51.849Z,22.23
2023-03-11T04:33:23.215Z,21.70
2023-03-11T04:35:51.887Z,21.67
2023-03-11T04:38:23.949Z,20.93
2023-03-11T04:40:53.038Z,24.63
2023-03-11T04:43:21.870Z,24.57
2023-03-11T04:45:52.347Z,24.57
2023-03-11T04:48:20.753Z,26.33
2023-03-11T04:50:49.839Z,24.60
2023-03-11T04:53:26.966Z,23.77
2023-03-11T04:55:55.751Z,24.07
2023-03-11T04:58:24.362Z,22.50
2023-03-11T05:00:54.414Z,23.53
2023-03-11T05:03:23.350Z,22.30
2023-03-11T05:05:53.135Z,22.80
2023-03-11T05:08:24.303Z,24.00
2023-03-11T05:10:54.098Z,21.33
2023-03-11T05:13:26.334Z,23.07
2023-03-11T05:15:56.841Z,21.70
2023-03-11T05:18:25.558Z,21.63
2023-03-11T05:20:54.390Z,20.03
2023-03-11T05:23:30.248Z,22.10
2023-03-11T05:26:00.200Z,21.40
2023-03-11T05:28:32.822Z,22.90
2023-03-11T05:31:04.500Z,21.50
2023-03-11T05:33:36.352Z,23.17
2023-03-11T05:36:08.466Z,21.37
2023-03-11T05:38:40.404Z,22.67
2023-03-11T05:41:15.033Z,22.07
2023-03-11T05:43:45.052Z,24.53
2023-03-11T05:46:15.607Z,22.10
2023-03-11T05:48:45.105Z,22.67
2023-03-11T05:51:15.281Z,22.30
2023-03-11T05:53:48.778Z,23.53
2023-03-11T05:56:24.447Z,24.87
2023-03-11T05:58:55.215Z,22.37
2023-03-11T06:01:24.098Z,22.03
2023-03-11T06:03:52.788Z,21.00
2023-03-11T06:06:21.085Z,22.70
2023-03-11T06:08:51.312Z,21.67
2023-03-11T06:11:23.916Z,21.90
2023-03-11T06:13:54.666Z,21.50
2023-03-11T06:16:27.235Z,21.73
2023-03-11T06:19:00.700Z,21.67
2023-03-11T06:21:38.828Z,22.03
2023-03-11T06:24:15.077Z,22.23
2023-03-11T06:26:45.282Z,21.57
2023-03-11T06:29:16.670Z,21.43
2023-03-11T06:31:49.719Z,19.33
2023-03-11T06:34:18.977Z,20.03
2023-03-11T06:36:47.575Z,21.67
2023-03-11T06:39:17.673Z,19.10
2023-03-11T06:41:49.139Z,20.70
2023-03-11T06:44:21.941Z,19.90
2023-03-11T06:46:50.654Z,19.80
2023-03-11T06:49:19.973Z,19.40
2023-03-11T06:51:48.480Z,20.33
2023-03-11T06:54:21.660Z,20.80
2023-03-11T06:56:50.038Z,19.67
2023-03-11T06:59:19.244Z,19.93
2023-03-11T07:01:47.553Z,21.30
2023-03-11T07:04:20.581Z,19.87
2023-03-11T07:06:49.603Z,20.80
2023-03-11T07:09:25.269Z,18.37
2023-03-11T07:11:54.219Z,19.60
2023-03-11T07:14:29.032Z,19.20
2023-03-11T07:16:59.355Z,19.07
2023-03-11T07:19:33.475Z,22.13
2023-03-11T07:22:01.938Z,19.73
2023-03-11T07:24:31.882Z,20.20
2023-03-11T07:27:02.953Z,20.30
2023-03-11T07:29:31.628Z,21.20
2023-03-11T07:32:00.179Z,21.47
2023-03-11T07:34:32.014Z,19.73
2023-03-11T07:37:00.675Z,20.83
2023-03-11T07:39:29.378Z,20.63
2023-03-11T07:41:59.149Z,20.80
2023-03-11T07:44:38.848Z,22.70
2023-03-11T07:47:10.624Z,20.63
2023-03-11T07:49:47.043Z,20.17
2023-03-11T07:52:15.627Z,19.90
2023-03-11T07:55:06.532Z,19.57
2023-03-11T07:57:43.877Z,20.17
2023-03-11T08:00:19.338Z,20.57
2023-03-11T08:02:58.700Z,20.37
2023-03-11T08:05:41.335Z,22.53
2023-03-11T08:08:10.962Z,19.23
2023-03-11T08:10:43.899Z,20.63
2023-03-11T08:13:16.838Z,21.63
2023-03-11T08:15:54.358Z,23.93
2023-03-11T08:18:25.789Z,21.27
2023-03-11T08:20:57.477Z,20.70
2023-03-11T08:23:35.119Z,21.40
2023-03-11T08:26:11.503Z,21.87
2023-03-11T08:28:50.496Z,21.60
2023-03-11T08:31:25.107Z,21.17
2023-03-11T08:33:56.598Z,20.57
2023-03-11T08:36:34.542Z,22.23
2023-03-11T08:39:10.679Z,19.90
2023-03-11T08:41:43.752Z,20.73
2023-03-11T08:44:21.840Z,21.83
2023-03-11T08:46:53.484Z,20.53
2023-03-11T08:49:23.412Z,20.10
2023-03-11T08:51:52.746Z,16.27
2023-03-11T08:54:36.765Z,22.97
2023-03-11T08:57:29.380Z,18.67
2023-03-11T09:00:22.271Z,18.83
2023-03-11T09:03:28.042Z,18.57
2023-03-11T09:09:06.820Z,18.00
2023-03-11T09:11:37.763Z,19.13
2023-03-11T09:14:07.174Z,16.00
2023-03-11T09:16:50.764Z,16.20
2023-03-11T09:19:49.695Z,17.47
2023-03-11T09:25:36.010Z,17.83
2023-03-11T09:28:09.368Z,19.30
2023-03-11T09:30:39.658Z,16.63
2023-03-11T09:37:49.267Z,17.40
2023-03-11T09:43:33.325Z,18.20
2023-03-11T09:46:15.677Z,18.20
2023-03-11T09:48:57.412Z,17.03
2023-03-11T09:54:40.493Z,18.70
2023-03-11T09:57:14.945Z,20.10
2023-03-11T09:59:48.923Z,17.13
2023-03-11T10:02:27.050Z,22.87
2023-03-11T10:05:05.129Z,18.40
2023-03-11T10:07:41.029Z,18.03
2023-03-11T10:10:16.612Z,18.67
2023-03-11T10:13:07.146Z,20.57
2023-03-11T10:15:56.378Z,19.77
2023-03-11T10:18:53.617Z,21.63
2023-03-11T10:21:47.697Z,20.70
2023-03-11T10:24:38.538Z,18.17
2023-03-11T10:27:15.992Z,21.17
2023-03-11T10:29:54.085Z,19.33
2023-03-11T10:32:41.265Z,20.13
2023-03-11T10:35:46.369Z,17.97
2023-03-11T10:38:21.671Z,19.20
2023-03-11T10:44:29.543Z,17.03
2023-03-11T10:47:50.428Z,19.53
2023-03-11T10:50:21.990Z,21.50
2023-03-11T10:53:09.565Z,17.80
2023-03-11T10:55:47.835Z,16.43
2023-03-11T10:58:36.238Z,17.33
2023-03-11T11:01:29.361Z,20.83
2023-03-11T11:04:00.928Z,17.93
2023-03-11T11:06:37.296Z,16.60
2023-03-11T11:09:19.750Z,17.97
2023-03-11T11:12:06.957Z,16.70
2023-03-11T11:18:52.286Z,14.47
2023-03-11T11:25:45.368Z,17.93
2023-03-11T11:49:15.507Z,18.80
2023-03-11T11:51:50.300Z,14.30
2023-03-11T11:54:33.884Z,13.23
2023-03-11T11:57:10.870Z,14.10
2023-03-11T11:59:43.462Z,14.23
2023-03-11T12:03:02.545Z,13.90
2023-03-11T12:05:40.175Z,13.30
2023-03-11T12:27:53.561Z,14.63
2023-03-11T12:34:53.477Z,14.37
2023-03-11T12:37:49.017Z,14.97
2023-03-11T12:41:27.671Z,13.90
2023-03-11T12:44:41.954Z,15.20
2023-03-11T12:48:12.558Z,13.83
2023-03-11T12:50:49.572Z,14.10
2023-03-11T12:56:38.731Z,15.77
2023-03-11T12:59:40.435Z,14.27
2023-03-11T13:02:58.213Z,15.73
2023-03-11T13:05:32.350Z,14.37
2023-03-11T13:11:46.726Z,14.17
2023-03-11T13:14:40.204Z,14.57
2023-03-11T13:17:32.573Z,15.70
2023-03-11T13:20:04.991Z,15.20
2023-03-11T13:27:29.936Z,14.97
2023-03-11T13:30:41.144Z,13.27
2023-03-11T13:33:54.172Z,13.40
2023-03-11T13:48:46.381Z,14.40
2023-03-11T13:51:40.600Z,15.00
2023-03-11T13:55:16.216Z,13.50
2023-03-11T13:57:59.700Z,13.37
2023-03-11T14:00:40.054Z,12.80
2023-03-11T14:03:27.749Z,15.20
2023-03-11T14:06:32.304Z,13.97
2023-03-11T14:09:08.148Z,14.60
2023-03-11T14:11:47.684Z,13.93
2023-03-11T14:14:35.398Z,13.40
2023-03-11T14:17:05.348Z,13.50
2023-03-11T14:19:36.768Z,14.20
2023-03-11T14:22:22.807Z,13.60
2023-03-11T14:25:00.595Z,14.50
2023-03-11T14:27:29.604Z,13.50
2023-03-11T14:30:37.408Z,14.10
2023-03-11T14:33:30.668Z,12.60
2023-03-11T14:36:09.064Z,14.70
2023-03-11T14:38:44.566Z,13.30
2023-03-11T14:41:16.998Z,14.53
2023-03-11T14:43:51.406Z,23.57
2023-03-11T14:46:32.482Z,13.30
2023-03-11T14:52:34.764Z,14.03
2023-03-11T14:55:30.148Z,13.07
2023-03-11T15:16:27.310Z,13.10
2023-03-11T15:23:05.159Z,14.07
2023-03-11T15:30:11.626Z,14.20
2023-03-11T15:33:21.906Z,13.20
2023-03-11T15:35:55.194Z,13.63
2023-03-11T15:39:16.001Z,14.27
2023-03-11T15:41:47.972Z,13.10
2023-03-11T15:44:26.421Z,13.50
2023-03-11T15:46:54.883Z,13.63
2023-03-11T15:49:37.256Z,14.57
2023-03-11T15:52:46.512Z,13.87
2023-03-11T15:55:20.809Z,12.70
2023-03-11T15:57:50.485Z,12.40
2023-03-11T16:00:22.485Z,12.27
2023-03-11T16:16:56.128Z,11.70
2023-03-11T16:19:32.546Z,12.33
2023-03-11T16:25:08.921Z,11.80
2023-03-11T16:27:46.019Z,13.20
2023-03-11T16:30:38.461Z,12.37
2023-03-11T16:33:10.509Z,12.97
2023-03-11T16:35:41.662Z,12.00
2023-03-11T16:38:14.369Z,12.50
2023-03-11T16:40:44.543Z,11.90
2023-03-11T16:43:23.274Z,12.20
2023-03-11T16:46:00.296Z,11.70
2023-03-11T16:52:01.251Z,12.00
2023-03-11T16:55:10.061Z,11.90
2023-03-11T17:03:27.559Z,12.03
2023-03-11T17:06:28.892Z,12.00
2023-03-11T17:50:57.027Z,13.00
2023-03-11T18:00:44.225Z,12.30
2023-03-11T18:05:09.604Z,12.80
2023-03-11T18:07:53.523Z,15.63
2023-03-11T18:10:24.646Z,14.00
2023-03-11T18:16:54.080Z,12.90
2023-03-11T18:19:22.496Z,12.77
2023-03-11T18:25:52.668Z,13.70
2023-03-11T18:28:39.889Z,13.13
2023-03-11T18:32:01.668Z,13.23
2023-03-11T18:34:43.217Z,13.00
2023-03-11T18:37:35.609Z,13.73
2023-03-11T18:40:32.720Z,13.23
2023-03-11T18:47:01.932Z,15.90
2023-03-11T18:50:12.292Z,13.10
2023-03-11T18:53:13.257Z,14.40
2023-03-11T18:56:37.423Z,14.10
2023-03-11T19:02:34.347Z,13.10
2023-03-11T19:05:08.440Z,13.60
2023-03-11T19:07:48.134Z,14.63
2023-03-11T19:10:31.342Z,13.70
2023-03-11T19:16:23.543Z,13.90
2023-03-11T19:22:12.558Z,14.90
2023-03-11T19:24:50.726Z,13.70
2023-03-11T19:27:22.661Z,13.90
2023-03-11T19:30:24.952Z,14.47
2023-03-11T19:33:00.588Z,14.40
2023-03-11T19:36:08.420Z,14.40
2023-03-11T19:38:57.758Z,14.90
2023-03-11T19:41:29.177Z,15.20
2023-03-11T19:44:05.246Z,14.03
2023-03-11T19:46:37.415Z,13.50
2023-03-11T19:49:07.792Z,13.60
2023-03-11T19:51:50.232Z,13.07
2023-03-11T19:54:20.942Z,16.20
2023-03-11T19:56:49.878Z,15.20
2023-03-11T19:59:18.358Z,13.90
2023-03-11T20:01:46.820Z,13.90
2023-03-11T20:04:19.412Z,13.63
2023-03-11T20:06:51.592Z,13.47
2023-03-11T20:09:23.768Z,13.20
2023-03-11T20:11:52.506Z,14.03
2023-03-11T20:14:23.776Z,13.47
2023-03-11T20:16:55.449Z,13.70
2023-03-11T20:25:22.716Z,13.40
2023-03-11T20:27:51.354Z,14.33
2023-03-11T20:30:20.682Z,13.60
2023-03-11T20:32:55.188Z,13.60
2023-03-11T20:35:26.023Z,13.90
2023-03-11T20:37:54.629Z,13.57
2023-03-11T20:40:23.520Z,13.50
2023-03-11T20:42:52.187Z,13.80
2023-03-11T20:45:22.311Z,13.10
2023-03-11T20:47:56.457Z,12.40
2023-03-11T20:50:37.604Z,13.10
2023-03-11T20:53:14.759Z,13.20
2023-03-11T20:55:54.132Z,13.90
2023-03-11T20:58:22.555Z,13.17
2023-03-11T21:00:53.382Z,13.03
2023-03-11T21:03:29.640Z,13.87
2023-03-11T21:06:00.803Z,13.80
2023-03-11T21:08:40.764Z,13.90
2023-03-11T21:11:09.909Z,13.37
2023-03-11T21:13:38.351Z,13.80
2023-03-11T21:16:11.033Z,12.90
2023-03-11T21:18:40.081Z,13.63
2023-03-11T21:21:11.806Z,13.67
2023-03-11T21:23:41.015Z,14.17
2023-03-11T21:26:11.131Z,14.00
2023-03-11T21:28:48.730Z,13.53
2023-03-11T21:44:46.377Z,13.80
2023-03-11T21:47:17.601Z,13.70
2023-03-11T21:49:46.292Z,14.03
2023-03-11T21:52:15.195Z,14.20
2023-03-11T21:54:43.699Z,15.10
2023-03-11T21:57:12.281Z,17.13
2023-03-11T21:59:40.736Z,17.07
2023-03-11T22:02:17.303Z,14.20
2023-03-11T22:04:46.157Z,14.57
2023-03-11T22:07:14.535Z,14.20
2023-03-11T22:09:43.088Z,13.70
2023-03-11T22:12:12.020Z,13.63
2023-03-11T22:14:40.700Z,13.30
2023-03-11T22:17:09.276Z,12.93
2023-03-11T22:19:58.290Z,13.40
2023-03-11T22:22:26.825Z,14.10
2023-03-11T22:24:55.266Z,14.37
2023-03-11T22:27:26.264Z,13.53
2023-03-11T22:29:54.695Z,12.70
2023-03-11T22:32:23.333Z,13.60
2023-03-11T22:34:53.192Z,13.40
2023-03-11T22:37:21.741Z,13.43
2023-03-11T22:39:50.096Z,12.90
2023-03-11T22:42:18.346Z,13.43
2023-03-11T22:44:46.973Z,13.20
2023-03-11T22:47:15.626Z,13.17
2023-03-11T22:49:43.972Z,14.13
2023-03-11T22:52:13.741Z,13.60
2023-03-11T22:54:42.784Z,13.10
2023-03-11T22:57:11.202Z,13.70
2023-03-11T22:59:40.584Z,13.57
2023-03-11T23:02:09.304Z,13.60
2023-03-11T23:04:39.575Z,13.40
2023-03-11T23:07:08.067Z,12.60
2023-03-11T23:09:39.481Z,13.20
2023-03-11T23:12:08.647Z,13.33
2023-03-11T23:14:45.081Z,13.20
2023-03-11T23:17:13.721Z,12.87
2023-03-11T23:19:42.015Z,13.20
2023-03-11T23:22:10.460Z,13.00
2023-03-11T23:24:50.355Z,13.50
2023-03-11T23:27:18.625Z,13.30
2023-03-11T23:29:48.024Z,13.57
2023-03-11T23:32:16.617Z,15.03
2023-03-11T23:34:46.197Z,14.30
2023-03-11T23:37:14.614Z,13.87
2023-03-11T23:39:44.488Z,13.37
2023-03-11T23:42:25.070Z,13.70
2023-03-11T23:44:54.114Z,14.20
2023-03-11T23:47:22.266Z,14.47
2023-03-11T23:49:50.558Z,13.90
2023-03-11T23:52:18.882Z,13.60
2023-03-11T23:54:48.870Z,13.10
2023-03-11T23:57:17.197Z,13.60
2023-03-11T23:59:45.576Z,13.23
